• Join FlightAware (Why Join?)
  • Login
  • US Flag 
09:01PM EDT


 

Airport Tracker/Info


-or-


 

Live Flight TrackerFlight Track Log ✈ SWA3924 ✈ 30-Apr-2013 ✈ KMCO - KBNA

Flight Track Log - Related Links

Times and Time Zones

All times are in EDT time to prevent confusion due to time zone crossing. See the SWA3924 flight status page for this flight to view local times or setup timezone preferences in your user account.

Time Position Orientation Groundspeed Altitude Reporting Facility
EDT Latitude Longitude Course Direction KTS MPH feet Rate Location/Type
01:17PM 28.4000 -81.3000 165° South 156 180 1,400  Level Orlando TRACON
01:18PM 28.3500 -81.3500 221° Southwest 221 254 4,000 2,880 Climbing Orlando TRACON
01:20PM 28.3658 -81.5031 277° West 269 310 10,100 2,880 Climbing Jacksonville Center
01:21PM 28.3750 -81.5997 276° West 282 325 12,500 2,880 Climbing Jacksonville Center
01:22PM 28.3844 -81.7081 276° West 320 368 15,900 3,300 Climbing Jacksonville Center
01:23PM 28.3958 -81.8236 276° West 351 404 19,100 3,180 Climbing Jacksonville Center
01:24PM 28.4303 -81.9461 288° West 365 420 22,300 2,640 Climbing Jacksonville Center
01:25PM 28.4581 -82.0519 287° West 377 434 24,400 2,220 Climbing Jacksonville Center
01:26PM 28.5108 -82.1603 299° West 382 440 26,800 2,220 Climbing Jacksonville Center
01:27PM 28.6197 -82.2114 338° Northwest 382 440 28,900 2,040 Climbing Jacksonville Center
01:28PM 28.7328 -82.2603 339° North 400 460 30,900 1,500 Climbing Jacksonville Center
01:29PM 28.8456 -82.3072 340° North 417 480 32,000 540 Climbing Jacksonville Center
01:30PM 28.9711 -82.3586 340° North 433 498 32,000  Level Jacksonville Center
01:31PM 29.0839 -82.4078 339° North 433 498 32,000 660 Level Jacksonville Center
01:32PM 29.1947 -82.4550 340° North 428 493 33,400 960 Climbing Jacksonville Center
01:33PM 29.3078 -82.5044 339° North 428 493 34,000 360 Climbing Jacksonville Center
01:34PM 29.4183 -82.5517 340° North 428 493 34,200 1,200 Climbing Jacksonville Center
01:35PM 29.5272 -82.5967 340° North 428 493 36,500 1,860 Climbing Jacksonville Center
01:36PM 29.6336 -82.6392 341° North 417 480 38,000 1,020 Climbing Jacksonville Center
01:37PM 29.7381 -82.6892 337° Northwest 410 472 38,600 600 Climbing Jacksonville Center
01:38PM 29.8489 -82.7369 340° North 410 472 39,300 660 Climbing Jacksonville Center
01:39PM 29.9553 -82.7847 339° North 415 478 40,000 300 Climbing Jacksonville Center
01:40PM 30.0661 -82.8253 342° North 415 478 40,000  Level Jacksonville Center
01:41PM 30.1747 -82.8733 339° North 409 471 40,000  Level Jacksonville Center
01:42PM 30.2811 -82.9192 340° North 409 471 40,000  Level Jacksonville Center
01:43PM 30.3897 -82.9672 339° North 409 471 40,000  Level Jacksonville Center
01:44PM 30.4961 -83.0131 340° North 409 471 40,000  Level Jacksonville Center
01:45PM 30.6047 -83.0592 340° North 409 471 40,000  Level Jacksonville Center
01:46PM 30.7111 -83.1075 339° North 409 471 40,000  Level Jacksonville Center
01:47PM 30.8175 -83.1539 339° North 409 471 40,000  Level Jacksonville Center
01:48PM 30.9092 -83.1978 338° Northwest 398 458 40,000  Level Jacksonville Center
01:49PM 31.0136 -83.2442 339° North 398 458 40,000  Level Jacksonville Center
01:51PM 31.1872 -83.3228 339° North 409 471 40,000  Level Atlanta Center
01:52PM 31.2897 -83.3658 340° North 409 471 40,000  Level Atlanta Center
01:53PM 31.3944 -83.4136 339° North 409 471 40,000  Level Atlanta Center
01:54PM 31.4969 -83.4592 339° North 399 459 40,000  Level Atlanta Center
01:55PM 31.5994 -83.5050 339° North 394 453 40,000  Level Atlanta Center
01:56PM 31.7017 -83.5483 340° North 394 453 40,000  Level Atlanta Center
01:57PM 31.8189 -83.5989 340° North 394 453 40,000  Level Atlanta Center
01:58PM 31.9192 -83.6475 338° Northwest 399 459 40,000  Level Atlanta Center
01:59PM 32.0258 -83.6958 339° North 394 453 40,000  Level Atlanta Center
02:00PM 32.1283 -83.7422 339° North 394 453 40,000  Level Atlanta Center
02:01PM 32.2306 -83.7908 338° Northwest 394 453 40,000  Level Atlanta Center
02:02PM 32.3350 -83.8372 339° North 394 453 40,000  Level Atlanta Center
02:03PM 32.4394 -83.8839 339° North 394 453 40,000  Level Atlanta Center
02:04PM 32.5417 -83.9328 338° Northwest 394 453 40,000  Level Atlanta Center
02:05PM 32.6442 -83.9797 339° North 394 453 40,000  Level Atlanta Center
02:06PM 32.7486 -84.0289 338° Northwest 394 453 40,000  Level Atlanta Center
02:07PM 32.8508 -84.0733 340° North 394 453 40,000  Level Atlanta Center
02:08PM 32.9489 -84.1206 338° Northwest 388 447 40,000  Level Atlanta Center
02:09PM 33.0511 -84.1653 340° North 388 447 40,000  Level Atlanta Center
02:10PM 33.1511 -84.2125 338° Northwest 388 447 40,000  Level Atlanta Center
02:11PM 33.2514 -84.2622 337° Northwest 393 452 40,000  Level Atlanta Center
02:12PM 33.3514 -84.3122 337° Northwest 393 452 40,000  Level Atlanta Center
02:13PM 33.4536 -84.3550 341° North 393 452 40,000  Level Atlanta Center
02:14PM 33.5536 -84.4028 338° Northwest 388 447 40,000  Level Atlanta Center
02:15PM 33.6536 -84.4481 339° North 388 447 40,000  Level Atlanta Center
02:16PM 33.7558 -84.4936 340° North 388 447 40,000  Level Atlanta Center
02:17PM 33.8475 -84.5367 339° North 388 447 40,000  Level Atlanta Center
02:18PM 33.9517 -84.5797 341° North 387 445 40,000  Level Atlanta Center
02:19PM 34.0539 -84.6256 340° North 387 445 40,000 -240 Level Atlanta Center
02:20PM 34.1703 -84.6767 340° North 402 463 39,600 -720 Descending Atlanta Center
02:21PM 34.2703 -84.7250 338° Northwest 396 456 38,600 -960 Descending Atlanta Center
02:22PM 34.3639 -84.7964 328° Northwest 385 443 37,700 -840 Descending Atlanta Center
02:23PM 34.4594 -84.8650 329° Northwest 399 459 37,000 -900 Descending Atlanta Center
02:24PM 34.5547 -84.9417 326° Northwest 412 474 35,900 -1,380 Descending Atlanta Center
02:25PM 34.6461 -85.0083 329° Northwest 412 474 34,300 -1,800 Descending Atlanta Center
02:26PM 34.7478 -85.0878 327° Northwest 417 480 32,400 -1,800 Descending Atlanta Center
02:27PM 34.8492 -85.1675 327° Northwest 430 495 30,700 -1,920 Descending Atlanta Center
02:28PM 34.9528 -85.2475 328° Northwest 435 501 28,600 -2,100 Descending Atlanta Center
02:29PM 35.0503 -85.3250 327° Northwest 435 501 26,600 -1,980 Descending Atlanta Center
02:30PM 35.1308 -85.3858 328° Northwest 411 473 25,000 -1,440 Descending Memphis Center
02:31PM 35.2139 -85.4775 318° Northwest 395 455 24,000 -540 Descending Memphis Center
02:32PM 35.2906 -85.5772 313° West 395 455 24,000 -420 Level Memphis Center
02:33PM 35.3653 -85.6722 314° West 395 455 23,200 -1,440 Descending Memphis Center
02:34PM 35.4397 -85.7675 314° West 387 445 21,200 -2,040 Descending Memphis Center
02:35PM 35.5097 -85.8556 314° West 382 440 19,200 -1,800 Descending Memphis Center
02:36PM 35.5753 -85.9439 312° West 371 427 17,600 -1,980 Descending Memphis Center
02:37PM 35.6497 -86.0419 313° West 355 409 15,300 -2,100 Descending Memphis Center
02:38PM 35.7111 -86.1256 312° West 350 403 13,400 -1,920 Descending Memphis Center
02:39PM 35.7744 -86.2094 313° West 345 397 11,500 -1,620 Descending Memphis Center
02:40PM 35.8353 -86.2908 313° West 345 397 10,200 -1,260 Descending Memphis Center
02:41PM 35.8964 -86.3672 315° West 318 366 9,000 -1,260 Descending Memphis Center
02:42PM 35.9486 -86.4367 313° West 311 358 7,700 -1,320 Descending Memphis Center
02:43PM 36.0031 -86.5108 312° West 297 342 6,400 -1,020 Descending Memphis Center
02:44PM 36.0528 -86.5728 315° West 276 318 5,700 -780 Descending Memphis Center
02:45PM 36.1150 -86.5597 10° North 213 245 4,900 -900 Descending Memphis Center
02:46PM 36.1686 -86.5417 15° North 200 230 3,900 -1,200 Descending Memphis Center
02:47PM 36.1908 -86.5894 300° West 148 170 2,500 -1,200 Descending Memphis Center
02:48PM 36.1797 -86.6364 254° West 142 163 1,600 -900 Descending Memphis Center
02:49PM 36.1408 -86.6561 202° Southwest 137 158 800 -480 Descending Memphis Center
02:50PM 36.1103 -86.6806 213° Southwest 137 158 700 -120 Descending Memphis Center
02:52PM 36.1167 -86.6667 North  Level FlightAware Approximate
02:59PM 36.1245 -86.6782 North  Level Estimated
03:00PM 36.1245 -86.6782 North  Level Estimated
03:01PM 36.1245 -86.6782 North  Level Estimated
03:02PM 36.1245 -86.6782 North  Level Estimated